Oskaloosa, IA

10:32 AM CDT on March 23, 2017 (GMT -0500)
Oskaloosa Municipal

Weather History for KOOA - January, 2014

Change the Weather History Date:

Sunday, January 26, 2014

  Actual Average (KOTM) Record (KOTM)
Temperature  
Mean Temperature 24 °F -  
Max Temperature 44 °F 28 °F 65 °F (2002)
Min Temperature 3 °F 11 °F -14 °F (1936)
Degree Days  
Heating Degree Days 41    
Moisture  
Dew Point 17 °F    
Average Humidity 59    
Maximum Humidity 80    
Minimum Humidity 48    
Precipitation  
Precipitation 0.00 in - - ()
Sea Level Pressure  
Sea Level Pressure 29.64 in    
Wind  
Wind Speed 21 mph (WNW)    
Max Wind Speed 46 mph    
Max Gust Speed 54 mph    
Visibility 10 miles    
Events Snow    
Averages and records for this station are not official NWS values.
T = Trace of Precipitation, MM = Missing Value Source: NWS Daily Summary

Daily Weather History Graph

Daily Weather History Graph

Search for Another Location

Airport or City:

Trip Planner

Search our weather history database for the weather conditions in past years. The results will help you decide how hot, cold, wet, or windy it might be!

Date:

Astronomy

Jan. 26, 2014 Rise Set
Actual Time 7:26 AM CST 5:19 PM CST
Civil Twilight 6:56 AM CST 5:48 PM CST
Nautical Twilight 6:23 AM CST 6:22 PM CST
Astronomical Twilight 5:50 AM CST 6:54 PM CST
Moon 3:04 AM CST (1/26) 1:08 PM CST (1/26)
Length of Visible Light 10h 51m
Length of Day
9h 52m
Waning Crescent, 23% of the Moon is Illuminated
Jan 26
Waning Crescent
Jan 30
New
Feb 6
First Quarter
Feb 14
Full
Feb 22
Last Quarter

Hourly Weather History & Observations

Time (CST) Temp. Windchill Dew Point Humidity Pressure Visibility Wind Dir Wind Speed Gust Speed Precip Events Conditions
12:15 AM 22.5 °F 9.4 °F 6.3 °F 50% 29.61 in 10.0 mi SSE 15.0 mph - N/A   Overcast
12:35 AM 23.0 °F 10.1 °F 6.3 °F 49% 29.58 in 10.0 mi SSE 15.0 mph - N/A   Overcast
12:55 AM 23.5 °F 10.3 °F 6.8 °F 49% 29.54 in 10.0 mi SSE 16.1 mph - N/A   Overcast
1:15 AM 23.9 °F 9.9 °F 7.2 °F 49% 29.51 in 10.0 mi SSE 18.4 mph 21.9 mph N/A   Overcast
1:35 AM 24.4 °F 13.5 °F 7.2 °F 48% 29.51 in 10.0 mi South 11.5 mph - N/A   Scattered Clouds
1:55 AM 25.2 °F 12.4 °F 8.1 °F 48% 29.49 in 10.0 mi South 16.1 mph - N/A   Scattered Clouds
2:15 AM 26.4 °F 16.6 °F 9.3 °F 49% 29.48 in 10.0 mi South 10.4 mph - N/A   Scattered Clouds
2:35 AM 28.4 °F 17.5 °F 12.2 °F 51% 29.45 in 10.0 mi SSW 13.8 mph - N/A   Mostly Cloudy
2:55 AM 30.9 °F 19.4 °F 16.2 °F 54% 29.44 in 10.0 mi SW 17.3 mph - N/A   Overcast
3:15 AM 33.1 °F 21.5 °F 19.4 °F 57% 29.42 in 10.0 mi SW 19.6 mph 29.9 mph N/A   Overcast
3:35 AM 33.8 °F 22.8 °F 21.0 °F 60% 29.42 in 10.0 mi WSW 18.4 mph 25.3 mph N/A   Overcast
3:55 AM 35.6 °F 24.5 °F 23.7 °F 62% 29.42 in 10.0 mi WSW 20.7 mph 25.3 mph N/A   Overcast
4:15 AM 36.5 °F 26.0 °F 25.2 °F 64% 29.42 in 10.0 mi WSW 19.6 mph 24.2 mph N/A   Overcast
4:35 AM 38.7 °F 27.8 °F 27.1 °F 63% 29.42 in 10.0 mi West 24.2 mph 31.1 mph N/A   Overcast
4:55 AM 39.7 °F 29.0 °F 28.0 °F 63% 29.44 in 10.0 mi West 25.3 mph - N/A   Overcast
5:15 AM 40.6 °F 28.5 °F 30.0 °F 66% 29.46 in 10.0 mi WNW 35.7 mph 44.9 mph N/A   Overcast
5:35 AM 40.1 °F 28.8 °F 30.4 °F 68% 29.47 in 10.0 mi NW 28.8 mph 39.1 mph N/A   Overcast
5:55 AM 39.6 °F 30.0 °F 30.0 °F 69% 29.48 in 10.0 mi NW 19.6 mph 32.2 mph N/A   Overcast
6:15 AM 39.2 °F 28.7 °F 30.0 °F 70% 29.48 in 10.0 mi WNW 23.0 mph 28.8 mph N/A   Overcast
6:35 AM 39.2 °F 29.3 °F 30.0 °F 70% 29.49 in 10.0 mi WNW 20.7 mph 29.9 mph N/A   Overcast
6:55 AM 39.7 °F 28.1 °F 28.2 °F 63% 29.49 in 10.0 mi WNW 29.9 mph 39.1 mph N/A   Overcast
7:15 AM 39.7 °F 29.0 °F 27.3 °F 61% 29.51 in 10.0 mi WNW 25.3 mph 40.3 mph N/A   Overcast
7:35 AM 39.0 °F 27.8 °F 27.5 °F 63% 29.51 in 10.0 mi WNW 26.5 mph 38.0 mph N/A   Overcast
7:55 AM 37.2 °F 25.9 °F 27.1 °F 67% 29.51 in 10.0 mi WNW 24.2 mph 27.6 mph N/A   Scattered Clouds
8:15 AM 37.9 °F 28.2 °F 27.0 °F 65% 29.52 in 10.0 mi WNW 18.4 mph 28.8 mph N/A   Mostly Cloudy
8:35 AM 37.9 °F 27.6 °F 26.6 °F 64% 29.54 in 10.0 mi WNW 20.7 mph 26.5 mph N/A   Overcast
8:55 AM 38.3 °F 27.1 °F 27.0 °F 64% 29.55 in 10.0 mi WNW 25.3 mph 33.4 mph N/A   Overcast
9:15 AM 38.5 °F 26.4 °F 26.1 °F 61% 29.56 in 10.0 mi WNW 29.9 mph 38.0 mph N/A   Overcast
9:35 AM 39.4 °F 28.1 °F 26.2 °F 59% 29.55 in 10.0 mi NW 27.6 mph 42.6 mph N/A   Scattered Clouds
9:55 AM 39.4 °F 27.9 °F 25.7 °F 58% 29.57 in 10.0 mi NW 28.8 mph 42.6 mph N/A   Clear
10:15 AM 40.3 °F 28.9 °F 26.1 °F 57% 29.57 in 10.0 mi WNW 29.9 mph 39.1 mph N/A   Clear
10:35 AM 39.2 °F 28.7 °F 26.2 °F 60% 29.55 in 10.0 mi NW 23.0 mph 33.4 mph N/A   Clear
10:55 AM 39.2 °F 28.5 °F 25.5 °F 58% 29.56 in 10.0 mi WNW 24.2 mph 29.9 mph N/A   Clear
11:15 AM 39.2 °F 28.7 °F 25.0 °F 57% 29.56 in 10.0 mi NW 23.0 mph 28.8 mph N/A   Clear
11:35 AM 39.4 °F 30.1 °F 23.9 °F 54% 29.55 in 10.0 mi WNW 18.4 mph - N/A   Clear
11:55 AM 40.8 °F 31.4 °F 23.5 °F 50% 29.55 in 10.0 mi WNW 20.7 mph 26.5 mph N/A   Clear
12:15 PM 40.3 °F 31.6 °F 24.6 °F 54% 29.54 in 10.0 mi WNW 17.3 mph 23.0 mph N/A   Clear
12:35 PM 40.6 °F 31.4 °F 24.8 °F 53% 29.54 in 10.0 mi WNW 19.6 mph 25.3 mph N/A   Scattered Clouds
12:55 PM 40.6 °F 32.0 °F 25.5 °F 55% 29.54 in 10.0 mi West 17.3 mph - N/A   Overcast
1:15 PM 40.6 °F 32.7 °F 26.2 °F 57% 29.53 in 10.0 mi West 15.0 mph - N/A   Overcast
1:35 PM 42.8 °F 35.8 °F 27.3 °F 54% 29.50 in 10.0 mi West 13.8 mph - N/A   Mostly Cloudy
1:55 PM 43.0 °F 34.8 °F 27.1 °F 54% 29.50 in 10.0 mi West 18.4 mph - N/A   Scattered Clouds
2:15 PM 42.6 °F 35.6 °F 27.5 °F 55% 29.49 in 10.0 mi WSW 13.8 mph 18.4 mph N/A   Mostly Cloudy
2:35 PM 42.4 °F 37.0 °F 28.2 °F 57% 29.49 in 10.0 mi WSW 9.2 mph - N/A   Mostly Cloudy
2:55 PM 43.2 °F 35.6 °F 28.6 °F 56% 29.49 in 10.0 mi WSW 16.1 mph - N/A   Overcast
3:15 PM 43.5 °F 35.2 °F 28.4 °F 55% 29.48 in 10.0 mi WSW 19.6 mph - N/A   Overcast
3:35 PM 44.1 °F 35.7 °F 28.4 °F 54% 29.48 in 10.0 mi WSW 20.7 mph 26.5 mph N/A   Mostly Cloudy
3:55 PM 44.6 °F 35.9 °F 28.0 °F 52% 29.48 in 10.0 mi WSW 23.0 mph 28.8 mph N/A   Overcast
4:15 PM 44.2 °F 36.4 °F 28.0 °F 53% 29.49 in 10.0 mi West 18.4 mph - N/A   Overcast
4:35 PM 39.6 °F 27.9 °F 29.1 °F 66% 29.54 in 10.0 mi North 29.9 mph 50.6 mph N/A   Drizzle
4:55 PM 30.7 °F 15.9 °F 25.2 °F 80% 29.61 in 7.0 mi North 29.9 mph 40.3 mph N/A Snow Light Snow
5:15 PM 28.8 °F 13.7 °F 23.4 °F 80% 29.65 in 10.0 mi NNW 27.6 mph 35.7 mph N/A Snow Light Snow
5:35 PM 28.2 °F 12.5 °F 21.6 °F 76% 29.69 in 10.0 mi NNW 29.9 mph 36.8 mph N/A   Overcast
5:55 PM 26.4 °F 10.6 °F 18.0 °F 70% 29.72 in 10.0 mi NNW 27.6 mph 42.6 mph N/A   Overcast
6:15 PM 24.6 °F 8.2 °F 16.2 °F 70% 29.74 in 10.0 mi NNW 27.6 mph 38.0 mph N/A   Overcast
6:35 PM 23.4 °F 4.9 °F 13.6 °F 66% 29.79 in 10.0 mi NNW 34.5 mph 43.7 mph N/A   Overcast
6:55 PM 20.8 °F 1.9 °F 10.8 °F 65% 29.82 in 10.0 mi NNW 32.2 mph 41.4 mph N/A   Overcast
7:15 PM 18.1 °F -1.8 °F 8.2 °F 65% 29.86 in 10.0 mi NNW 32.2 mph 39.1 mph N/A   Overcast
7:35 PM 15.1 °F -6.2 °F 9.1 °F 77% 29.91 in 2.5 mi NNW 33.4 mph 42.6 mph N/A Snow Light Snow
7:55 PM 14.4 °F -6.9 °F 3.6 °F 62% 29.94 in 10.0 mi NW 32.2 mph 42.6 mph N/A   Overcast
8:15 PM 13.8 °F -10.7 °F -1.8 °F 50% 29.94 in 10.0 mi NW 46.0 mph 54.1 mph N/A   Mostly Cloudy
8:35 PM 12.9 °F -9.8 °F -2.9 °F 49% 29.98 in 10.0 mi NW 35.7 mph 48.3 mph N/A   Scattered Clouds
8:55 PM 10.8 °F -11.5 °F -3.6 °F 52% 30.01 in 10.0 mi NW 31.1 mph 44.9 mph N/A   Mostly Cloudy
9:15 PM 9.7 °F -14.2 °F -4.2 °F 54% 30.03 in 10.0 mi NNW 35.7 mph 48.3 mph N/A   Mostly Cloudy
9:35 PM 7.7 °F -15.7 °F -7.6 °F 50% 30.05 in 10.0 mi NW 31.1 mph 43.7 mph N/A   Scattered Clouds
9:55 PM 7.5 °F -12.9 °F -6.9 °F 52% 30.07 in 10.0 mi NW 21.9 mph 35.7 mph N/A   Clear
10:15 PM 6.8 °F -16.6 °F -8.0 °F 51% 30.07 in 10.0 mi NW 29.9 mph 40.3 mph N/A   Clear
10:35 PM 6.8 °F -14.3 °F -6.9 °F 54% 30.10 in 10.0 mi NW 23.0 mph 36.8 mph N/A   Mostly Cloudy
10:55 PM 6.6 °F -14.5 °F -5.4 °F 58% 30.11 in 10.0 mi NW 23.0 mph 34.5 mph N/A   Overcast
11:15 PM 5.5 °F -17.6 °F -8.5 °F 53% 30.12 in 10.0 mi NW 27.6 mph 33.4 mph N/A   Mostly Cloudy
11:35 PM 4.6 °F -18.4 °F -9.4 °F 52% 30.14 in 10.0 mi NW 26.5 mph 34.5 mph N/A   Clear
11:55 PM 3.7 °F -16.9 °F -8.0 °F 58% 30.15 in 10.0 mi NW 19.6 mph 24.2 mph N/A   Clear